Time;durP1;ratioP1;P1;durP2;ratioP2;P2;SDS_P1;SDS_P2;PMS_P1;PMS_P2;Temp;Humidity;BMP_temperature;BMP_pressure;BME280_temperature;BME280_humidity;BME280_pressure;Samples;Min_cycle;Max_cycle;Signal;HPM_P1;HPM_P2
2023/04/06 00:00:32;;;;;;;17.52;10.45;;;;;;;0.38;83.73;99551.19;5097030;28;20019;-59
2023/04/06 00:02:57;;;;;;;16.02;9.73;;;;;;;0.46;83.87;99545.88;5099641;28;20035;-60
2023/04/06 00:05:23;;;;;;;19.95;9.88;;;;;;;0.35;82.51;99543.59;5101157;28;20035;-59
2023/04/06 00:07:49;;;;;;;15.82;9.90;;;;;;;0.29;83.42;99545.09;5095476;28;20467;-59
2023/04/06 00:10:15;;;;;;;17.75;10.10;;;;;;;0.31;82.97;99537.84;5099138;28;20465;-59
2023/04/06 00:12:41;;;;;;;18.00;10.57;;;;;;;0.50;85.83;99547.22;5099222;28;20396;-59
2023/04/06 00:15:07;;;;;;;20.70;10.25;;;;;;;0.60;83.26;99537.28;5094305;28;20062;-60
2023/04/06 00:17:32;;;;;;;15.60;9.13;;;;;;;0.29;80.33;99539.00;5097485;28;20470;-59
2023/04/06 00:19:57;;;;;;;19.10;10.07;;;;;;;0.47;82.13;99534.34;5095279;28;20366;-60
2023/04/06 00:22:23;;;;;;;17.02;9.90;;;;;;;0.37;80.99;99536.34;5102280;28;20293;-58
2023/04/06 00:24:48;;;;;;;17.35;10.20;;;;;;;0.43;83.24;99531.22;5099528;28;20027;-59
2023/04/06 00:27:14;;;;;;;16.60;9.40;;;;;;;0.31;79.38;99529.94;5096261;28;20027;-60
2023/04/06 00:29:40;;;;;;;16.63;9.48;;;;;;;0.23;80.35;99534.44;5097938;28;20389;-59
2023/04/06 00:32:05;;;;;;;19.90;9.07;;;;;;;0.16;81.99;99524.53;5100357;28;20031;-59
2023/04/06 00:34:31;;;;;;;17.15;8.95;;;;;;;-0.14;81.00;99527.88;5094450;28;20038;-59
2023/04/06 00:36:56;;;;;;;17.35;9.07;;;;;;;-0.22;80.42;99532.16;5097335;28;20051;-59
2023/04/06 00:39:21;;;;;;;14.95;8.10;;;;;;;-0.13;80.08;99532.16;5097948;28;20024;-59
2023/04/06 00:41:50;;;;;;;15.38;8.52;;;;;;;-0.13;80.69;99524.25;5092865;28;20032;-59
2023/04/06 00:44:16;;;;;;;15.13;8.73;;;;;;;-0.17;80.03;99528.22;5098744;28;20036;-59
2023/04/06 00:46:41;;;;;;;19.35;9.02;;;;;;;-0.33;80.45;99518.50;5092662;28;20038;-59
2023/04/06 00:49:07;;;;;;;15.02;8.93;;;;;;;-0.13;85.45;99518.97;5095266;28;20063;-59
2023/04/06 00:51:32;;;;;;;16.10;8.77;;;;;;;-0.34;80.99;99517.69;5094729;28;20562;-59
2023/04/06 00:53:57;;;;;;;14.88;8.32;;;;;;;-0.40;80.40;99514.88;5101776;28;20039;-59
2023/04/06 00:56:23;;;;;;;14.38;8.32;;;;;;;-0.30;81.10;99508.47;5098364;28;20027;-59
2023/04/06 00:58:49;;;;;;;11.75;7.90;;;;;;;-0.38;80.52;99503.19;5095682;28;20020;-59
2023/04/06 01:01:15;;;;;;;17.83;9.10;;;;;;;-0.17;81.95;99494.78;5097174;28;20489;-59
2023/04/06 01:03:42;;;;;;;15.45;9.05;;;;;;;-0.39;79.59;99498.91;5096990;28;20020;-59
2023/04/06 01:06:07;;;;;;;14.25;8.63;;;;;;;-0.27;79.08;99499.41;5098121;28;20106;-60
2023/04/06 01:08:33;;;;;;;12.07;8.43;;;;;;;-0.11;78.70;99495.94;5098359;28;20046;-59
2023/04/06 01:11:00;;;;;;;14.40;7.32;;;;;;;-0.17;81.50;99492.16;5091651;28;20028;-59
2023/04/06 01:13:26;;;;;;;13.52;7.88;;;;;;;-0.31;80.32;99487.53;5103879;28;20015;-59
2023/04/06 01:15:51;;;;;;;19.50;9.13;;;;;;;-0.37;80.82;99490.84;5099099;28;20040;-59
2023/04/06 01:18:17;;;;;;;13.48;8.13;;;;;;;-0.44;80.81;99482.78;5093055;28;20036;-59
2023/04/06 01:20:42;;;;;;;13.63;8.43;;;;;;;-0.51;79.58;99477.34;5097055;28;20390;-59
2023/04/06 01:23:07;;;;;;;14.02;8.57;;;;;;;-0.29;83.69;99473.22;5097107;28;20036;-58
2023/04/06 01:25:33;;;;;;;12.88;8.07;;;;;;;-0.40;79.91;99481.47;5093278;28;20462;-58
2023/04/06 01:27:58;;;;;;;16.80;8.98;;;;;;;-0.49;81.14;99478.00;5093582;28;20040;-58
2023/04/06 01:30:24;;;;;;;17.48;8.75;;;;;;;-0.49;82.53;99475.38;5097125;28;20032;-58
2023/04/06 01:32:49;;;;;;;13.60;8.68;;;;;;;-0.64;81.75;99463.03;5095431;28;20032;-59
2023/04/06 01:35:16;;;;;;;14.38;8.65;;;;;;;-0.92;83.51;99455.47;5098123;28;20028;-58
2023/04/06 01:37:41;;;;;;;14.27;8.43;;;;;;;-0.96;82.00;99460.22;5089243;28;20035;-58
2023/04/06 01:40:07;;;;;;;12.70;8.18;;;;;;;-0.89;82.69;99455.94;5095664;28;20032;-58
2023/04/06 01:42:33;;;;;;;15.15;9.30;;;;;;;-0.85;83.17;99459.06;5096017;28;20027;-58
2023/04/06 01:44:58;;;;;;;14.65;9.13;;;;;;;-0.81;84.72;99456.94;5096666;28;20039;-58
2023/04/06 01:47:24;;;;;;;17.08;8.90;;;;;;;-0.96;83.31;99451.50;5090908;28;20250;-58
2023/04/06 01:49:49;;;;;;;16.92;8.73;;;;;;;-0.75;90.48;99451.84;5097479;28;20043;-58
2023/04/06 01:52:15;;;;;;;14.73;7.88;;;;;;;-1.11;83.62;99457.38;5099509;28;20032;-58
2023/04/06 01:54:41;;;;;;;15.85;8.07;;;;;;;-0.92;84.00;99453.66;5102404;28;20040;-58
2023/04/06 01:57:06;;;;;;;15.15;8.45;;;;;;;-0.98;83.78;99456.09;5095829;28;20071;-60
2023/04/06 01:59:31;;;;;;;14.80;8.63;;;;;;;-0.64;87.41;99444.63;5092969;28;20088;-60
2023/04/06 02:01:57;;;;;;;14.52;8.30;;;;;;;-0.76;86.09;99444.13;5093659;28;20024;-59
2023/04/06 02:04:22;;;;;;;16.27;10.00;;;;;;;-0.67;87.95;99451.84;5098330;28;20031;-59
2023/04/06 02:06:48;;;;;;;18.58;9.65;;;;;;;-0.76;86.21;99439.66;5089995;28;20036;-59
2023/04/06 02:09:14;;;;;;;19.42;9.50;;;;;;;-0.70;89.70;99448.69;5097742;28;20180;-60
2023/04/06 02:11:39;;;;;;;24.58;11.68;;;;;;;-0.89;87.32;99445.41;5097685;28;20529;-59
2023/04/06 02:14:05;;;;;;;18.77;11.73;;;;;;;-0.89;86.12;99440.16;5101282;28;20032;-59
2023/04/06 02:16:31;;;;;;;17.40;9.63;;;;;;;-0.85;85.72;99438.00;5101023;28;20039;-59
2023/04/06 02:18:56;;;;;;;16.50;9.45;;;;;;;-0.81;87.15;99441.97;5101743;28;20039;-59
2023/04/06 02:21:21;;;;;;;18.58;9.63;;;;;;;-0.82;85.92;99447.38;5100641;28;20426;-59
2023/04/06 02:23:47;;;;;;;14.63;8.85;;;;;;;-0.81;85.96;99441.97;5095361;28;20107;-59
2023/04/06 02:26:13;;;;;;;17.42;9.52;;;;;;;-0.78;86.51;99446.06;5098497;28;20034;-59
2023/04/06 02:28:39;;;;;;;14.32;8.70;;;;;;;-0.87;84.21;99442.63;5091725;28;20504;-59
2023/04/06 02:31:05;;;;;;;15.50;8.00;;;;;;;-0.68;81.36;99442.28;5097543;28;20066;-59
2023/04/06 02:33:30;;;;;;;12.30;7.80;;;;;;;-0.56;80.33;99444.59;5101355;28;20028;-59
2023/04/06 02:35:56;;;;;;;12.88;7.65;;;;;;;-0.71;81.49;99433.91;5099417;28;20031;-59
2023/04/06 02:38:21;;;;;;;12.52;7.57;;;;;;;-0.73;83.21;99444.59;5097556;28;20023;-59
2023/04/06 02:40:46;;;;;;;11.98;8.15;;;;;;;-0.85;83.36;99440.63;5099866;28;20024;-59
2023/04/06 02:43:12;;;;;;;12.25;7.95;;;;;;;-0.94;82.11;99436.38;5103124;28;20031;-59
2023/04/06 02:45:37;;;;;;;12.15;7.13;;;;;;;-0.85;81.05;99440.63;5097509;28;20020;-59
2023/04/06 02:48:03;;;;;;;17.25;7.82;;;;;;;-0.82;81.61;99435.06;5095583;28;20035;-59
2023/04/06 02:50:28;;;;;;;13.35;7.85;;;;;;;-0.76;86.11;99436.22;5100262;28;20472;-59
2023/04/06 02:52:54;;;;;;;16.88;7.50;;;;;;;-0.83;84.52;99437.84;5098789;28;20032;-59
2023/04/06 02:55:19;;;;;;;14.93;8.00;;;;;;;-1.10;84.00;99426.63;5097318;28;20092;-59
2023/04/06 02:57:45;;;;;;;16.05;7.82;;;;;;;-1.15;83.12;99424.50;5100884;28;20028;-59
2023/04/06 03:00:11;;;;;;;13.38;7.82;;;;;;;-1.03;84.56;99432.06;5097837;28;20047;-59
2023/04/06 03:02:37;;;;;;;14.05;7.38;;;;;;;-1.15;83.12;99428.94;5096641;27;20043;-59
2023/04/06 03:05:03;;;;;;;13.25;7.63;;;;;;;-1.25;84.48;99436.97;5102039;28;20044;-59
2023/04/06 03:07:28;;;;;;;13.23;8.15;;;;;;;-1.21;87.09;99434.84;5099692;28;20040;-59
2023/04/06 03:09:54;;;;;;;14.02;7.90;;;;;;;-1.31;87.10;99435.00;5094149;28;20494;-59
2023/04/06 03:12:19;;;;;;;13.98;8.73;;;;;;;-1.43;86.56;99429.19;5098630;28;21306;-59
2023/04/06 03:14:45;;;;;;;13.18;8.52;;;;;;;-1.44;87.85;99426.75;5099154;28;20127;-59
2023/04/06 03:17:10;;;;;;;15.73;8.30;;;;;;;-1.50;86.47;99424.75;5094667;28;20419;-59
2023/04/06 03:19:36;;;;;;;15.32;8.60;;;;;;;-1.21;84.12;99422.50;5098019;28;20112;-59
2023/04/06 03:22:01;;;;;;;14.32;7.80;;;;;;;-1.19;84.00;99423.19;5093407;28;20035;-59
2023/04/06 03:24:27;;;;;;;15.38;7.90;;;;;;;-0.86;81.79;99423.22;5105320;28;20073;-59
2023/04/06 03:26:52;;;;;;;14.75;7.65;;;;;;;-0.79;80.68;99426.84;5095168;28;20487;-59
2023/04/06 03:29:18;;;;;;;12.40;7.50;;;;;;;-0.43;84.21;99431.75;5099921;28;20035;-59
2023/04/06 03:31:43;;;;;;;10.85;7.30;;;;;;;-0.63;80.29;99428.63;5095183;28;20024;-58
2023/04/06 03:34:09;;;;;;;13.93;7.93;;;;;;;-0.86;80.78;99425.84;5096647;28;20035;-58
2023/04/06 03:36:34;;;;;;;14.65;8.02;;;;;;;-1.02;82.57;99433.72;5097639;28;20031;-58
2023/04/06 03:39:00;;;;;;;17.88;9.68;;;;;;;-1.27;85.40;99436.31;5101288;28;20127;-58
2023/04/06 03:41:26;;;;;;;23.65;11.35;;;;;;;-1.42;87.69;99440.53;5098635;28;20088;-58
2023/04/06 03:43:51;;;;;;;18.27;9.13;;;;;;;-1.63;86.88;99431.28;5097840;28;20570;-60
2023/04/06 03:46:17;;;;;;;12.43;7.97;;;;;;;-1.64;86.30;99434.91;5093605;28;20035;-58
2023/04/06 03:48:42;;;;;;;15.73;8.30;;;;;;;-1.70;86.73;99439.94;5095163;28;20038;-59
2023/04/06 03:51:07;;;;;;;15.13;8.02;;;;;;;-1.70;87.35;99439.94;5102118;28;20393;-59
2023/04/06 03:53:33;;;;;;;15.38;8.35;;;;;;;-1.80;87.41;99445.31;5096402;28;20024;-60
2023/04/06 03:55:58;;;;;;;16.95;8.50;;;;;;;-1.83;88.53;99440.41;5097196;27;20043;-59
2023/04/06 03:58:24;;;;;;;12.23;8.52;;;;;;;-1.86;88.71;99445.97;5096425;28;20035;-60
2023/04/06 04:00:49;;;;;;;17.50;8.43;;;;;;;-1.80;89.18;99445.31;5104388;28;20440;-58
2023/04/06 04:03:14;;;;;;;18.67;8.88;;;;;;;-1.71;88.54;99439.13;5099841;28;20036;-59
2023/04/06 04:05:40;;;;;;;19.20;9.45;;;;;;;-1.63;88.50;99441.78;5098046;28;20020;-59
2023/04/06 04:08:05;;;;;;;15.00;9.50;;;;;;;-1.66;90.69;99447.38;5097024;28;20389;-58
2023/04/06 04:10:31;;;;;;;15.50;9.15;;;;;;;-1.79;90.77;99447.00;5096673;28;20035;-60
2023/04/06 04:12:56;;;;;;;14.38;8.07;;;;;;;-1.91;91.69;99449.06;5101041;28;20036;-58
2023/04/06 04:15:22;;;;;;;12.55;7.53;;;;;;;-1.83;94.30;99453.53;5101221;28;20035;-58
2023/04/06 04:17:49;;;;;;;14.23;8.18;;;;;;;-1.75;95.26;99456.19;5101175;28;20081;-59
2023/04/06 04:20:15;;;;;;;15.77;8.40;;;;;;;-1.81;94.24;99451.56;5096491;28;20080;-59
2023/04/06 04:22:41;;;;;;;14.85;8.15;;;;;;;-1.85;93.53;99452.84;5095648;28;20106;-59
2023/04/06 04:25:06;;;;;;;14.60;8.25;;;;;;;-1.80;94.87;99450.59;5096787;28;20031;-59
2023/04/06 04:27:32;;;;;;;13.32;8.52;;;;;;;-1.80;94.83;99458.47;5094105;28;20035;-59
2023/04/06 04:29:57;;;;;;;12.35;7.72;;;;;;;-1.91;93.84;99448.25;5094286;28;20486;-59
2023/04/06 04:32:26;;;;;;;15.05;8.18;;;;;;;-2.02;94.18;99450.16;5098474;28;20057;-59
2023/04/06 04:34:52;;;;;;;13.55;7.97;;;;;;;-2.01;96.05;99448.34;5098859;28;20108;-58
2023/04/06 04:37:18;;;;;;;18.10;8.43;;;;;;;-1.99;95.31;99447.22;5097650;28;20024;-58
2023/04/06 04:39:45;;;;;;;13.70;8.02;;;;;;;-1.97;94.40;99450.53;5095698;28;20734;-58
2023/04/06 04:42:10;;;;;;;12.98;7.70;;;;;;;-2.07;93.63;99444.56;5099677;28;20030;-60
2023/04/06 04:44:36;;;;;;;15.43;8.63;;;;;;;-2.09;93.59;99456.19;5095513;28;20027;-59
2023/04/06 04:47:01;;;;;;;13.93;8.23;;;;;;;-2.05;93.43;99455.72;5095374;28;20028;-59
2023/04/06 04:49:27;;;;;;;11.88;7.72;;;;;;;-2.01;93.63;99459.69;5103572;28;20035;-60
2023/04/06 04:51:52;;;;;;;13.07;8.00;;;;;;;-2.03;92.81;99455.56;5091309;28;20028;-60
2023/04/06 04:54:18;;;;;;;19.27;8.52;;;;;;;-1.99;93.18;99452.47;5098368;28;20027;-59
2023/04/06 04:56:45;;;;;;;13.18;8.20;;;;;;;-1.84;93.95;99454.53;5097680;28;20024;-59
2023/04/06 04:59:10;;;;;;;13.40;7.90;;;;;;;-1.48;92.79;99456.97;5102567;28;20030;-59
2023/04/06 05:01:35;;;;;;;12.43;7.82;;;;;;;-1.37;93.16;99461.94;5097860;28;20035;-59
2023/04/06 05:04:01;;;;;;;12.73;8.27;;;;;;;-1.44;91.36;99456.50;5097008;28;20539;-59
2023/04/06 05:06:26;;;;;;;11.15;7.60;;;;;;;-1.36;91.52;99458.31;5097206;28;20035;-59
2023/04/06 05:08:52;;;;;;;14.73;8.00;;;;;;;-1.28;90.75;99455.69;5097359;28;20058;-59
2023/04/06 05:11:17;;;;;;;14.57;8.05;;;;;;;-1.29;90.39;99459.31;5096620;28;20818;-59
2023/04/06 05:13:43;;;;;;;16.58;8.35;;;;;;;-1.39;90.09;99453.38;5099333;28;20036;-59
2023/04/06 05:16:08;;;;;;;16.15;8.57;;;;;;;-0.45;89.76;99452.16;5078586;28;20048;-59
2023/04/06 05:18:33;;;;;;;17.60;9.35;;;;;;;0.23;83.25;99461.44;5097460;28;20020;-59
2023/04/06 05:20:59;;;;;;;15.27;8.57;;;;;;;0.07;80.55;99457.00;5093224;28;20027;-59
2023/04/06 05:23:24;;;;;;;15.70;9.88;;;;;;;-0.20;83.33;99455.59;5098925;28;20028;-59
2023/04/06 05:25:50;;;;;;;16.77;9.77;;;;;;;-0.66;82.77;99465.81;5094582;28;20028;-60
2023/04/06 05:28:16;;;;;;;16.70;10.25;;;;;;;-0.41;83.10;99458.75;5088841;28;20051;-59
2023/04/06 05:30:42;;;;;;;15.40;10.05;;;;;;;-0.84;83.67;99467.81;5094909;27;20093;-59
2023/04/06 05:33:08;;;;;;;22.67;13.07;;;;;;;-0.18;84.80;99468.59;5100972;27;20023;-59
2023/04/06 05:35:34;;;;;;;24.85;12.40;;;;;;;1.96;79.05;99474.31;5085147;28;20539;-59
2023/04/06 05:38:00;;;;;;;25.10;12.63;;;;;;;3.00;69.50;99478.50;5100006;28;20501;-59
2023/04/06 05:40:25;;;;;;;20.05;11.75;;;;;;;3.19;66.36;99469.13;5075066;28;20032;-59
2023/04/06 05:42:51;;;;;;;17.67;10.80;;;;;;;4.36;61.65;99473.06;5092164;28;20813;-59
2023/04/06 05:45:18;;;;;;;18.60;10.88;;;;;;;4.41;59.07;99473.31;5093622;28;20341;-59
2023/04/06 05:47:44;;;;;;;17.25;10.82;;;;;;;5.03;57.66;99468.03;5094456;28;20023;-60
2023/04/06 05:50:14;;;;;;;21.52;11.55;;;;;;;6.22;53.81;99475.28;5095296;28;20397;-59
2023/04/06 05:52:42;;;;;;;19.10;10.88;;;;;;;6.42;51.89;99472.56;5095252;28;20028;-60
2023/04/06 05:55:08;;;;;;;19.65;11.75;;;;;;;6.17;53.64;99472.41;5093289;28;20032;-59
2023/04/06 05:57:34;;;;;;;17.70;11.30;;;;;;;6.34;53.49;99478.94;5090251;28;20030;-59
2023/04/06 05:59:59;;;;;;;17.73;10.45;;;;;;;6.65;52.48;99480.88;5093521;28;20028;-59
2023/04/06 06:02:25;;;;;;;22.58;10.70;;;;;;;6.16;53.00;99478.75;5092860;28;20133;-58
2023/04/06 06:04:50;;;;;;;12.88;7.82;;;;;;;6.78;52.55;99480.00;5098388;28;20035;-59
2023/04/06 06:07:16;;;;;;;13.80;8.18;;;;;;;6.57;53.75;99475.78;5095042;28;20028;-59
2023/04/06 06:09:41;;;;;;;12.50;8.30;;;;;;;6.66;52.95;99479.88;5094494;28;20474;-60
2023/04/06 06:12:07;;;;;;;17.23;9.38;;;;;;;6.65;51.93;99472.88;5098329;28;20043;-60
2023/04/06 06:14:32;;;;;;;13.95;9.15;;;;;;;6.90;52.01;99472.16;5095023;28;20054;-60
2023/04/06 06:16:58;;;;;;;20.27;10.73;;;;;;;7.23;50.97;99465.84;5096584;28;20089;-60
2023/04/06 06:19:23;;;;;;;12.93;9.18;;;;;;;7.32;51.21;99469.88;5101535;28;20024;-59
2023/04/06 06:21:49;;;;;;;15.27;10.15;;;;;;;7.46;50.94;99474.09;5098144;28;20035;-60
2023/04/06 06:24:14;;;;;;;20.13;11.00;;;;;;;8.08;49.13;99474.19;5101220;28;20328;-60
2023/04/06 06:26:40;;;;;;;17.33;12.32;;;;;;;6.88;52.16;99471.56;5092665;28;20028;-60
2023/04/06 06:29:06;;;;;;;14.15;9.13;;;;;;;8.88;48.40;99480.53;5095828;28;20039;-60
2023/04/06 06:31:31;;;;;;;13.32;8.18;;;;;;;9.58;47.05;99467.41;5092278;28;20031;-60
2023/04/06 06:33:57;;;;;;;17.65;9.10;;;;;;;8.69;48.21;99469.06;5097468;28;20114;-60
2023/04/06 06:36:22;;;;;;;16.15;7.93;;;;;;;9.39;47.59;99471.22;5098094;28;20024;-59
2023/04/06 06:38:48;;;;;;;17.45;8.35;;;;;;;7.79;49.64;99470.38;5090333;28;20069;-60
2023/04/06 06:41:13;;;;;;;14.13;8.52;;;;;;;8.57;49.24;99464.47;5093929;28;20221;-59
2023/04/06 06:43:39;;;;;;;12.43;7.50;;;;;;;7.99;50.35;99473.66;5088794;28;20034;-59
2023/04/06 06:46:05;;;;;;;16.33;8.57;;;;;;;8.89;47.51;99471.50;5097347;28;20034;-59
2023/04/06 06:48:30;;;;;;;16.55;8.77;;;;;;;8.70;50.11;99476.84;5090477;28;20047;-60
2023/04/06 06:50:56;;;;;;;12.63;7.93;;;;;;;9.88;47.16;99474.53;5097979;28;20309;-59
2023/04/06 06:53:23;;;;;;;15.20;7.72;;;;;;;10.00;46.55;99472.69;5094021;28;20482;-59
2023/04/06 06:55:51;;;;;;;12.60;7.30;;;;;;;10.46;45.04;99473.75;5098768;28;20051;-60
2023/04/06 06:58:17;;;;;;;12.27;7.93;;;;;;;10.43;45.71;99474.22;5094507;28;20441;-59
2023/04/06 07:00:43;;;;;;;12.43;8.05;;;;;;;10.96;44.32;99470.47;5093690;28;20210;-60
2023/04/06 07:03:08;;;;;;;12.00;7.30;;;;;;;11.45;43.36;99467.31;5103223;28;20497;-60
2023/04/06 07:05:34;;;;;;;14.40;7.28;;;;;;;10.78;44.04;99467.94;5099046;28;20020;-60
2023/04/06 07:07:59;;;;;;;15.63;8.15;;;;;;;11.23;43.44;99468.03;5093100;28;20025;-59
2023/04/06 07:10:26;;;;;;;12.55;8.18;;;;;;;11.48;42.95;99471.38;5098244;27;20031;-59
2023/04/06 07:12:51;;;;;;;16.52;8.10;;;;;;;11.09;43.35;99468.56;5102348;27;20027;-60
2023/04/06 07:15:17;;;;;;;14.18;8.60;;;;;;;10.13;44.64;99467.13;5102035;28;20522;-59
2023/04/06 07:17:44;;;;;;;13.60;7.75;;;;;;;9.89;46.15;99457.47;5098563;28;20022;-59
2023/04/06 07:20:10;;;;;;;13.50;8.48;;;;;;;11.35;43.11;99462.59;5099143;28;20425;-59
2023/04/06 07:22:36;;;;;;;16.55;8.95;;;;;;;8.69;47.86;99461.88;5098241;28;20038;-59
2023/04/06 07:25:01;;;;;;;18.00;9.30;;;;;;;11.23;44.03;99467.19;5094099;28;20390;-59
2023/04/06 07:27:27;;;;;;;16.38;8.57;;;;;;;11.08;44.09;99474.97;5097364;28;20093;-59
2023/04/06 07:29:52;;;;;;;14.45;8.23;;;;;;;10.08;46.35;99463.50;5095384;28;20038;-59
2023/04/06 07:32:17;;;;;;;13.18;8.30;;;;;;;9.53;47.57;99464.59;5101490;28;20459;-59
2023/04/06 07:34:45;;;;;;;17.90;8.13;;;;;;;8.92;48.66;99463.03;5100459;28;20035;-59
2023/04/06 07:37:10;;;;;;;16.08;9.20;;;;;;;10.57;46.42;99467.53;5097053;28;20490;-59
2023/04/06 07:39:35;;;;;;;13.60;8.32;;;;;;;8.93;48.51;99459.31;5091606;28;20024;-59
2023/04/06 07:42:01;;;;;;;16.15;10.68;;;;;;;10.38;46.75;99458.03;5092412;27;20020;-60
2023/04/06 07:44:26;;;;;;;23.45;14.10;;;;;;;11.70;44.56;99460.75;5100098;28;20470;-60
2023/04/06 07:46:52;;;;;;;17.95;10.20;;;;;;;11.43;44.85;99459.53;5101520;28;20317;-60
2023/04/06 07:49:17;;;;;;;20.30;9.00;;;;;;;9.77;48.16;99456.63;5102246;28;20401;-59
2023/04/06 07:51:43;;;;;;;18.08;9.07;;;;;;;10.97;46.22;99461.38;5101265;28;20742;-59
2023/04/06 07:54:08;;;;;;;20.77;9.25;;;;;;;11.23;44.84;99467.19;5096343;28;20028;-60
2023/04/06 07:56:34;;;;;;;17.95;10.73;;;;;;;12.05;43.78;99460.53;5099051;28;20485;-59
2023/04/06 07:58:59;;;;;;;18.75;10.88;;;;;;;12.33;43.93;99456.06;5096118;28;20039;-60
2023/04/06 08:01:26;;;;;;;20.00;10.70;;;;;;;12.26;43.13;99450.91;5100154;28;20497;-60
2023/04/06 08:03:51;;;;;;;16.45;8.93;;;;;;;10.55;47.62;99453.56;5099184;28;20093;-60
2023/04/06 08:06:16;;;;;;;19.52;10.02;;;;;;;11.79;44.87;99456.63;5099793;28;20074;-60
2023/04/06 08:08:42;;;;;;;17.92;10.35;;;;;;;12.42;43.45;99449.22;5094659;28;20032;-59
2023/04/06 08:11:08;;;;;;;22.35;10.45;;;;;;;11.34;45.69;99454.81;5095842;28;20114;-60
2023/04/06 08:13:34;;;;;;;16.30;9.15;;;;;;;10.58;45.83;99453.13;5094285;28;20107;-60
2023/04/06 08:16:00;;;;;;;16.85;9.40;;;;;;;9.81;49.57;99447.06;5092990;28;20138;-60
2023/04/06 08:18:25;;;;;;;19.70;10.07;;;;;;;11.06;47.04;99450.25;5095291;28;20115;-60
2023/04/06 08:20:51;;;;;;;17.95;9.02;;;;;;;12.13;44.87;99452.06;5098589;28;20071;-60
2023/04/06 08:23:16;;;;;;;18.20;9.48;;;;;;;10.59;46.81;99448.56;5096829;28;20374;-60
2023/04/06 08:25:41;;;;;;;17.98;8.63;;;;;;;9.34;50.36;99452.38;5093742;28;20303;-59
2023/04/06 08:28:08;;;;;;;20.00;9.55;;;;;;;11.39;46.98;99455.69;5099446;28;20452;-60
2023/04/06 08:30:34;;;;;;;17.23;8.68;;;;;;;10.30;49.31;99445.81;5088984;28;20032;-60
2023/04/06 08:32:59;;;;;;;18.58;9.30;;;;;;;10.41;48.11;99441.50;5092033;28;20119;-59
2023/04/06 08:35:26;;;;;;;16.20;8.65;;;;;;;10.60;48.62;99441.31;5102269;28;20031;-59
2023/04/06 08:37:51;;;;;;;15.35;8.75;;;;;;;10.89;47.90;99445.66;5091173;28;20049;-59
2023/04/06 08:40:17;;;;;;;15.80;9.60;;;;;;;11.54;47.33;99448.97;5098377;28;20028;-59
2023/04/06 08:42:45;;;;;;;19.52;9.20;;;;;;;11.27;47.35;99438.84;5094641;28;20202;-59
2023/04/06 08:45:10;;;;;;;18.77;10.50;;;;;;;10.88;47.98;99441.34;5095110;28;20097;-59
2023/04/06 08:47:36;;;;;;;19.77;9.98;;;;;;;11.05;48.01;99436.03;5097283;28;20032;-59
2023/04/06 08:50:05;;;;;;;17.67;9.18;;;;;;;10.16;50.73;99433.69;5101279;28;20030;-59
2023/04/06 08:52:31;;;;;;;17.95;9.30;;;;;;;10.21;49.61;99439.16;5095613;28;20039;-59
2023/04/06 08:54:57;;;;;;;19.80;9.82;;;;;;;11.38;48.60;99435.28;5096591;28;20034;-59
2023/04/06 08:57:23;;;;;;;19.83;9.93;;;;;;;11.69;47.64;99441.16;5093638;28;20111;-59
2023/04/06 08:59:48;;;;;;;20.00;9.65;;;;;;;11.41;48.64;99445.53;5098481;28;20039;-59
2023/04/06 09:02:17;;;;;;;20.77;9.80;;;;;;;9.91;51.73;99436.63;5097304;28;20023;-58
2023/04/06 09:04:42;;;;;;;23.77;10.90;;;;;;;10.12;50.29;99437.88;5095827;28;20473;-59
2023/04/06 09:07:07;;;;;;;23.90;9.65;;;;;;;10.58;50.75;99444.22;5089566;28;20073;-59
2023/04/06 09:09:33;;;;;;;19.27;8.73;;;;;;;10.39;51.23;99443.59;5098932;28;20362;-59
2023/04/06 09:12:05;;;;;;;17.75;8.60;;;;;;;9.98;52.47;99439.97;5087141;28;20039;-59
2023/04/06 09:14:35;;;;;;;23.98;9.80;;;;;;;11.97;49.08;99448.31;5095927;28;20047;-59
2023/04/06 09:17:00;;;;;;;23.88;10.13;;;;;;;10.76;49.08;99448.63;5096122;28;20054;-59
2023/04/06 09:19:26;;;;;;;25.02;10.65;;;;;;;11.23;48.70;99448.41;5100000;28;20412;-59
2023/04/06 09:22:04;;;;;;;21.02;9.40;;;;;;;10.71;47.99;99440.50;5095329;28;20016;-63
2023/04/06 09:24:46;;;;;;;23.17;10.40;;;;;;;11.35;48.55;99435.75;5093323;28;20042;-59
2023/04/06 09:27:11;;;;;;;21.65;9.85;;;;;;;11.80;48.93;99429.50;5088188;28;20115;-59
2023/04/06 09:29:37;;;;;;;25.55;9.57;;;;;;;12.97;45.70;99426.72;5091135;28;20028;-59
2023/04/06 09:32:06;;;;;;;22.25;10.13;;;;;;;12.01;44.14;99437.91;5090621;28;20102;-59
2023/04/06 09:34:32;;;;;;;21.70;9.70;;;;;;;12.45;44.29;99438.75;5101164;28;20131;-59
2023/04/06 09:36:58;;;;;;;20.85;8.98;;;;;;;12.63;43.39;99424.22;5095718;28;20063;-60
2023/04/06 09:39:23;;;;;;;22.13;10.02;;;;;;;13.80;41.40;99421.00;5091835;28;20038;-61
2023/04/06 09:41:52;;;;;;;20.65;9.27;;;;;;;13.47;42.03;99422.91;5088761;28;20028;-61
2023/04/06 09:44:18;;;;;;;26.95;10.25;;;;;;;13.22;42.00;99425.34;5096084;28;20070;-58
2023/04/06 09:46:45;;;;;;;21.23;8.40;;;;;;;13.35;42.56;99420.41;5099192;28;20031;-61
2023/04/06 09:49:11;;;;;;;20.95;8.93;;;;;;;13.99;41.08;99422.22;5095865;28;20103;-58
2023/04/06 09:51:38;;;;;;;25.33;10.13;;;;;;;15.00;40.13;99417.56;5090849;28;20036;-61
2023/04/06 09:54:04;;;;;;;22.25;8.32;;;;;;;15.17;39.70;99416.50;5094884;28;20024;-58
2023/04/06 09:56:47;;;;;;;20.55;8.57;;;;;;;15.40;38.80;99415.16;5096464;28;20055;-59
2023/04/06 09:59:45;;;;;;;26.98;9.07;;;;;;;15.09;38.97;99405.16;5100049;28;20036;-58
2023/04/06 10:02:20;;;;;;;24.10;9.35;;;;;;;15.25;38.64;99403.28;5092999;28;20412;-59
2023/04/06 10:04:52;;;;;;;19.02;8.13;;;;;;;13.08;41.88;99404.25;5101421;28;20024;-59
2023/04/06 10:07:18;;;;;;;24.45;9.43;;;;;;;14.01;41.06;99395.03;5093114;28;20019;-59
2023/04/06 10:09:44;;;;;;;20.08;9.13;;;;;;;14.43;39.98;99400.34;5096524;28;20443;-59
2023/04/06 10:12:10;;;;;;;25.25;9.35;;;;;;;14.61;39.77;99392.91;5095846;28;20462;-59
2023/04/06 10:14:37;;;;;;;21.27;8.48;;;;;;;13.54;41.01;99403.88;5095605;28;20047;-60
2023/04/06 10:17:03;;;;;;;19.88;8.38;;;;;;;14.33;40.21;99392.22;5096474;28;20442;-60
2023/04/06 10:19:43;;;;;;;23.00;8.52;;;;;;;15.08;39.18;99402.72;5096999;28;20446;-59
2023/04/06 10:22:08;;;;;;;26.80;8.95;;;;;;;15.47;37.96;99404.91;5098941;28;20080;-59
2023/04/06 10:24:34;;;;;;;21.98;8.93;;;;;;;15.24;37.75;99398.97;5098874;28;20427;-59
2023/04/06 10:27:02;;;;;;;21.73;8.88;;;;;;;15.39;37.62;99408.16;5093505;28;20059;-59
2023/04/06 10:29:28;;;;;;;21.10;8.98;;;;;;;14.92;37.87;99401.06;5101981;27;20039;-59
2023/04/06 10:31:55;;;;;;;23.98;9.52;;;;;;;14.50;38.71;99415.47;5094596;28;20031;-59
2023/04/06 10:34:20;;;;;;;19.33;8.80;;;;;;;13.93;39.25;99412.50;5106797;28;20024;-60
2023/04/06 10:36:46;;;;;;;20.67;9.30;;;;;;;13.62;39.63;99413.34;5101284;28;20024;-59
2023/04/06 10:39:11;;;;;;;21.98;9.10;;;;;;;13.63;40.19;99409.56;5097372;28;20027;-59
2023/04/06 10:41:45;;;;;;;20.23;9.20;;;;;;;14.56;38.64;99411.75;5095856;28;20020;-59
2023/04/06 10:44:17;;;;;;;26.25;9.23;;;;;;;14.26;37.87;99405.13;5106472;28;20073;-59
2023/04/06 10:46:52;;;;;;;20.35;8.48;;;;;;;13.58;38.93;99407.69;5103660;28;20028;-59
2023/04/06 10:49:17;;;;;;;22.60;8.85;;;;;;;13.42;40.34;99404.03;5099411;28;20057;-59
2023/04/06 10:51:43;;;;;;;18.75;8.48;;;;;;;13.06;40.47;99409.06;5099358;28;20027;-59
2023/04/06 10:54:08;;;;;;;22.77;9.23;;;;;;;13.62;39.96;99407.97;5102055;28;20039;-59
2023/04/06 10:56:36;;;;;;;20.27;8.63;;;;;;;13.74;39.68;99400.50;5077674;28;20028;-59
2023/04/06 10:59:02;;;;;;;22.35;9.52;;;;;;;13.35;40.58;99398.03;5099571;28;20032;-59
2023/04/06 11:01:27;;;;;;;28.90;10.10;;;;;;;13.07;41.05;99396.41;5097906;28;20388;-59
2023/04/06 11:03:58;;;;;;;23.02;9.20;;;;;;;12.52;41.42;99392.88;5100779;28;20030;-59
2023/04/06 11:06:29;;;;;;;25.05;9.70;;;;;;;13.03;40.94;99390.75;5097751;28;20034;-59
2023/04/06 11:08:55;;;;;;;21.20;8.88;;;;;;;12.84;40.62;99394.84;5100289;28;20036;-59
2023/04/06 11:11:21;;;;;;;25.23;10.05;;;;;;;13.47;40.67;99390.59;5093397;28;20064;-59
2023/04/06 11:13:55;;;;;;;25.42;9.80;;;;;;;13.27;40.56;99390.44;5097136;28;20020;-59
2023/04/06 11:16:25;;;;;;;21.10;8.57;;;;;;;12.73;40.02;99393.94;5099252;28;20040;-59
2023/04/06 11:19:01;;;;;;;22.38;8.48;;;;;;;13.23;40.19;99392.81;5093345;28;20032;-61